Time;durP1;ratioP1;P1;durP2;ratioP2;P2;SDS_P1;SDS_P2;PMS_P1;PMS_P2;Temp;Humidity;BMP_temperature;BMP_pressure;BME280_temperature;BME280_humidity;BME280_pressure;Samples;Min_cycle;Max_cycle;Signal;HPM_P1;HPM_P2
2021/01/28 00:01:12;;;;;;;;;27.00;18.50;;;;;-2.31;73.58;99442.66;4998188;28;8949;-58
2021/01/28 00:03:40;;;;;;;;;31.75;23.75;;;;;-2.64;74.95;99439.56;5013141;28;8861;-58
2021/01/28 00:06:09;;;;;;;;;32.25;22.50;;;;;-2.66;74.26;99441.31;5010462;28;8859;-58
2021/01/28 00:08:37;;;;;;;;;37.25;26.00;;;;;-2.33;73.59;99447.06;5008055;28;8885;-58
2021/01/28 00:11:04;;;;;;;;;35.75;24.75;;;;;-2.72;74.49;99446.66;5012030;28;8835;-58
2021/01/28 00:13:32;;;;;;;;;33.00;24.25;;;;;-2.94;75.81;99449.53;5012399;28;8855;-58
2021/01/28 00:15:59;;;;;;;;;38.75;27.50;;;;;-2.98;76.31;99449.59;5013110;28;8831;-59
2021/01/28 00:18:26;;;;;;;;;27.75;21.25;;;;;-2.94;76.62;99452.16;5012749;28;8859;-59
2021/01/28 00:20:53;;;;;;;;;30.75;26.75;;;;;-3.14;76.33;99448.88;5013077;28;8969;-58
2021/01/28 00:23:20;;;;;;;;;48.50;27.00;;;;;-3.04;76.57;99445.28;5012659;28;8835;-58
2021/01/28 00:25:49;;;;;;;;;39.00;24.25;;;;;-3.24;77.94;99436.72;5012572;28;8839;-58
2021/01/28 00:28:21;;;;;;;;;25.00;22.50;;;;;-3.03;77.24;99439.13;5014283;28;8863;-58
2021/01/28 00:30:52;;;;;;;;;28.25;17.75;;;;;-2.80;76.24;99432.75;5013067;28;8826;-58
2021/01/28 00:33:25;;;;;;;;;24.75;17.25;;;;;-3.16;76.72;99440.13;5012567;28;8858;-58
2021/01/28 00:35:55;;;;;;;;;26.50;21.50;;;;;-2.85;75.62;99434.56;5012533;28;8873;-58
2021/01/28 00:38:28;;;;;;;;;28.25;21.00;;;;;-2.94;75.46;99433.78;5027236;28;8925;-58
2021/01/28 00:40:58;;;;;;;;;26.00;17.00;;;;;-2.87;74.79;99431.94;5002728;28;8870;-58
2021/01/28 00:43:25;;;;;;;;;26.00;18.25;;;;;-2.88;75.63;99435.47;5012813;28;8843;-58
2021/01/28 00:45:53;;;;;;;;;4.00;0.00;;;;;-2.76;74.69;99431.84;5011984;28;8981;-58
2021/01/28 00:48:24;;;;;;;;;29.50;19.00;;;;;-2.83;75.16;99436.28;5028019;28;8887;-58
2021/01/28 00:50:52;;;;;;;;;17.75;16.00;;;;;-2.85;75.37;99445.94;5027508;28;8838;-58
2021/01/28 00:53:19;;;;;;;;;37.50;24.25;;;;;-2.92;74.61;99445.16;5013747;28;9618;-58
2021/01/28 00:55:46;;;;;;;;;32.25;18.00;;;;;-2.93;75.75;99453.03;5021764;28;8842;-58
2021/01/28 00:58:19;;;;;;;;;28.75;21.00;;;;;-3.27;75.58;99449.88;5016212;28;8839;-58
2021/01/28 01:00:48;;;;;;;;;34.75;25.00;;;;;-3.18;76.76;99447.19;5011768;28;8858;-58
2021/01/28 01:03:21;;;;;;;;;23.75;10.00;;;;;-3.20;75.95;99448.94;5027581;28;8909;-58
2021/01/28 01:05:49;;;;;;;;;30.50;21.00;;;;;-3.17;76.29;99451.53;5029030;28;8819;-58
2021/01/28 01:08:29;;;;;;;;;31.00;25.00;;;;;-3.53;76.89;99446.63;5015663;28;8846;-58
2021/01/28 01:11:04;;;;;;;;;21.25;18.75;;;;;-3.58;77.83;99437.03;5031638;28;8858;-58
2021/01/28 01:13:35;;;;;;;;;42.25;28.50;;;;;-3.31;76.91;99436.78;5014680;28;8831;-58
2021/01/28 01:16:04;;;;;;;;;33.75;25.00;;;;;-3.33;76.67;99433.31;5031755;28;8815;-58
2021/01/28 01:18:34;;;;;;;;;30.75;22.00;;;;;-3.38;76.87;99432.47;5014217;28;8851;-58
2021/01/28 01:21:04;;;;;;;;;36.00;23.00;;;;;-3.39;76.96;99432.50;5029724;28;8930;-58
2021/01/28 01:23:31;;;;;;;;;26.00;21.00;;;;;-3.36;76.55;99432.47;5030726;28;8925;-58
2021/01/28 01:26:00;;;;;;;;;25.50;18.50;;;;;-3.23;77.42;99441.09;5014283;28;8851;-58
2021/01/28 01:28:28;;;;;;;;;19.75;12.00;;;;;-3.40;76.57;99439.47;5015176;28;8882;-58
2021/01/28 01:30:57;;;;;;;;;21.50;15.75;;;;;-3.28;76.22;99435.03;5016346;28;8839;-58
2021/01/28 01:33:24;;;;;;;;;36.00;22.00;;;;;-3.40;76.26;99426.34;5035241;28;8867;-58
2021/01/28 01:35:51;;;;;;;;;20.50;14.00;;;;;-3.59;76.38;99420.41;5022951;28;8859;-58
2021/01/28 01:38:19;;;;;;;;;26.00;19.00;;;;;-3.72;78.23;99423.16;5015678;28;8930;-58
2021/01/28 01:40:56;;;;;;;;;17.00;13.00;;;;;-3.98;77.95;99426.84;5015284;28;8970;-58
2021/01/28 01:43:26;;;;;;;;;29.50;21.25;;;;;-3.55;77.23;99421.28;5012412;28;9781;-58
2021/01/28 01:46:06;;;;;;;;;26.50;19.00;;;;;-3.75;77.73;99411.81;5015845;28;9778;-59
2021/01/28 01:48:57;;;;;;;;;29.75;18.25;;;;;-3.82;78.31;99406.63;5014219;28;8863;-58
2021/01/28 01:51:34;;;;;;;;;24.50;15.50;;;;;-4.11;78.03;99398.97;5027749;28;8829;-58
2021/01/28 01:54:12;;;;;;;;;43.00;27.25;;;;;-4.36;79.52;99399.16;5011695;28;8813;-58
2021/01/28 01:56:45;;;;;;;;;41.75;24.50;;;;;-4.31;79.25;99396.50;5014279;28;8912;-58
2021/01/28 01:59:30;;;;;;;;;30.50;23.50;;;;;-4.61;80.14;99402.78;5014790;28;8912;-58
2021/01/28 02:02:10;;;;;;;;;38.25;29.00;;;;;-4.47;80.56;99400.97;5013411;28;8850;-58
2021/01/28 02:04:38;;;;;;;;;34.00;24.50;;;;;-4.45;80.85;99407.03;5013840;28;8843;-57
2021/01/28 02:07:14;;;;;;;;;32.00;25.00;;;;;-4.64;82.24;99404.53;5030134;28;8839;-58
2021/01/28 02:09:44;;;;;;;;;26.00;19.00;;;;;-4.74;81.83;99401.97;5012013;28;8841;-58
2021/01/28 02:12:11;;;;;;;;;32.50;21.00;;;;;-4.45;80.45;99393.94;5001391;28;8823;-58
2021/01/28 02:14:39;;;;;;;;;21.00;21.00;;;;;-4.53;81.70;99400.97;5014776;28;8839;-58
2021/01/28 02:17:20;;;;;;;;;32.00;22.00;;;;;-4.37;81.63;99399.16;5013075;28;8878;-58
2021/01/28 02:20:21;;;;;;;;;37.00;24.00;;;;;-3.99;80.62;99394.53;5030246;28;8835;-57
2021/01/28 02:23:04;;;;;;;;;33.00;19.25;;;;;-3.96;80.01;99396.25;5016643;28;8835;-57
2021/01/28 02:25:37;;;;;;;;;30.50;22.00;;;;;-3.80;79.06;99402.25;5038316;28;9772;-58
2021/01/28 02:28:13;;;;;;;;;33.75;24.75;;;;;-3.97;79.96;99403.25;5013285;28;8857;-58
2021/01/28 02:30:42;;;;;;;;;30.00;19.50;;;;;-3.97;78.77;99408.50;5029775;28;8859;-57
2021/01/28 02:33:12;;;;;;;;;20.75;15.00;;;;;-3.95;79.08;99403.22;5029205;28;8859;-58
2021/01/28 02:35:39;;;;;;;;;17.75;15.25;;;;;-4.03;78.79;99407.66;5013907;28;8831;-58
2021/01/28 02:38:10;;;;;;;;;18.00;13.00;;;;;-3.99;77.65;99414.63;5014104;28;8862;-57
2021/01/28 02:40:38;;;;;;;;;18.50;15.00;;;;;-3.85;77.56;99422.38;5013877;28;8827;-58
2021/01/28 02:43:06;;;;;;;;;10.50;6.00;;;;;-3.72;77.26;99424.03;5011940;28;8862;-57
2021/01/28 02:45:37;;;;;;;;;16.75;13.25;;;;;-3.70;77.02;99422.28;5014155;28;8929;-58
2021/01/28 02:48:09;;;;;;;;;19.50;14.25;;;;;-3.61;76.40;99430.03;5013848;28;8863;-58
2021/01/28 02:50:36;;;;;;;;;19.50;16.50;;;;;-3.75;76.87;99430.16;5030264;28;8871;-58
2021/01/28 02:53:06;;;;;;;;;16.00;12.25;;;;;-3.73;77.19;99429.31;5013918;28;8851;-58
2021/01/28 02:55:35;;;;;;;;;26.75;12.75;;;;;-3.76;76.55;99438.94;5013647;28;8847;-58
2021/01/28 02:58:02;;;;;;;;;21.75;15.25;;;;;-3.81;76.44;99438.09;5012780;28;8863;-58
2021/01/28 03:00:35;;;;;;;;;27.00;21.00;;;;;-3.75;76.74;99434.56;5013262;28;8914;-58
2021/01/28 03:03:07;;;;;;;;;36.75;19.75;;;;;-3.59;76.74;99423.03;5029256;28;8847;-58
2021/01/28 03:05:35;;;;;;;;;25.75;16.50;;;;;-3.84;76.90;99425.00;5014190;28;8827;-58
2021/01/28 03:08:04;;;;;;;;;25.00;17.00;;;;;-3.86;77.45;99426.78;5013134;28;8851;-58
2021/01/28 03:10:31;;;;;;;;;21.25;18.00;;;;;-3.63;76.75;99415.22;5013848;28;8847;-57
2021/01/28 03:12:59;;;;;;;;;23.50;16.50;;;;;-4.14;77.66;99414.72;5014036;28;8894;-58
2021/01/28 03:15:28;;;;;;;;;28.00;19.50;;;;;-4.00;78.43;99412.91;5029515;28;8846;-58
2021/01/28 03:17:56;;;;;;;;;21.25;15.00;;;;;-3.95;77.26;99416.34;5013425;28;8872;-58
2021/01/28 03:20:25;;;;;;;;;27.50;19.25;;;;;-3.99;77.89;99409.38;5013135;28;8929;-58
2021/01/28 03:22:52;;;;;;;;;25.50;17.50;;;;;-3.86;77.25;99411.03;5029500;28;8847;-58
2021/01/28 03:25:20;;;;;;;;;23.00;15.50;;;;;-3.61;77.16;99408.19;5013745;28;8838;-58
2021/01/28 03:27:48;;;;;;;;;25.00;20.50;;;;;-3.79;77.36;99409.22;5012265;28;8892;-58
2021/01/28 03:30:29;;;;;;;;;27.50;21.00;;;;;-3.93;78.55;99409.34;5012417;28;9533;-57
2021/01/28 03:32:57;;;;;;;;;25.00;16.50;;;;;-3.76;77.44;99401.34;5013415;28;8861;-54
2021/01/28 03:35:24;;;;;;;;;196.50;157.75;;;;;-3.74;77.30;99396.94;5013293;28;8854;-57
2021/01/28 03:37:52;;;;;;;;;439.75;369.50;;;;;-3.72;78.12;99407.44;5013134;28;8851;-58
2021/01/28 03:40:25;;;;;;;;;42.00;29.25;;;;;-4.08;78.40;99410.34;4995386;28;8842;-58
2021/01/28 03:42:52;;;;;;;;;41.50;32.00;;;;;-3.91;78.47;99401.47;5019153;28;8879;-57
2021/01/28 03:45:19;;;;;;;;;54.25;45.25;;;;;-3.96;78.18;99393.63;5009270;28;8823;-58
2021/01/28 03:47:48;;;;;;;;;60.00;47.00;;;;;-4.10;79.16;99393.75;5028579;28;8897;-57
2021/01/28 03:50:21;;;;;;;;;34.00;24.25;;;;;-4.07;79.69;99392.84;5011801;28;8862;-58
2021/01/28 03:52:49;;;;;;;;;29.00;17.00;;;;;-4.14;78.56;99402.50;5013874;28;8830;-58
2021/01/28 03:55:16;;;;;;;;;31.00;24.50;;;;;-4.12;79.38;99394.63;5013710;28;8827;-58
2021/01/28 03:57:49;;;;;;;;;35.00;28.50;;;;;-3.99;78.97;99398.91;5012803;28;8897;-57
2021/01/28 04:00:28;;;;;;;;;29.75;25.50;;;;;-4.02;79.42;99398.94;5012677;28;8920;-58
2021/01/28 04:02:55;;;;;;;;;35.00;25.25;;;;;-3.98;79.92;99398.00;5012971;28;8834;-58
2021/01/28 04:05:23;;;;;;;;;27.75;21.50;;;;;-3.90;79.35;99392.69;5029340;28;9530;-58
2021/01/28 04:07:50;;;;;;;;;25.50;20.00;;;;;-3.88;79.10;99389.19;5015707;28;8869;-58
2021/01/28 04:10:29;;;;;;;;;30.75;22.25;;;;;-3.92;79.31;99384.88;5013173;28;8827;-58
2021/01/28 04:12:57;;;;;;;;;30.75;23.50;;;;;-3.67;78.32;99384.66;5013268;28;8843;-58
2021/01/28 04:15:25;;;;;;;;;30.00;21.50;;;;;-3.77;78.61;99384.72;5013494;28;8858;-57
2021/01/28 04:17:52;;;;;;;;;29.75;22.50;;;;;-3.76;78.93;99381.22;5012850;28;8969;-57
2021/01/28 04:20:25;;;;;;;;;32.00;22.50;;;;;-4.02;79.60;99388.44;5013290;28;8831;-58
2021/01/28 04:22:54;;;;;;;;;31.50;18.75;;;;;-3.72;78.81;99381.19;5012969;28;8854;-58
2021/01/28 04:25:22;;;;;;;;;30.75;19.00;;;;;-3.81;79.65;99376.91;5013046;28;8843;-57
2021/01/28 04:27:49;;;;;;;;;29.00;24.00;;;;;-3.83;79.33;99374.28;5013401;28;8839;-58
2021/01/28 04:30:24;;;;;;;;;29.00;19.50;;;;;-3.91;78.51;99385.72;5012234;28;8861;-58
2021/01/28 04:32:51;;;;;;;;;30.00;17.75;;;;;-3.80;78.88;99369.00;5012106;28;8953;-58
2021/01/28 04:35:18;;;;;;;;;19.25;18.00;;;;;-3.81;78.71;99361.19;5012750;28;8839;-58
2021/01/28 04:37:45;;;;;;;;;31.00;24.25;;;;;-3.97;79.06;99360.44;5013307;28;8863;-58
2021/01/28 04:41:01;;;;;;;;;34.50;22.00;;;;;-3.72;78.76;99362.84;5013439;28;8843;-60
2021/01/28 04:43:32;;;;;;;;;28.75;21.75;;;;;-3.95;79.29;99356.03;5008430;28;8896;-58
2021/01/28 04:46:04;;;;;;;;;31.75;23.25;;;;;-3.99;79.56;99351.69;5031703;28;8854;-58
2021/01/28 04:48:34;;;;;;;;;34.00;21.50;;;;;-3.75;78.17;99359.34;5016713;28;8835;-58
2021/01/28 04:51:05;;;;;;;;;35.50;23.75;;;;;-4.20;79.27;99358.84;5015805;28;8854;-58
2021/01/28 04:53:53;;;;;;;;;23.00;18.75;;;;;-4.02;78.97;99354.34;5016344;28;8843;-58
2021/01/28 04:56:26;;;;;;;;;24.00;18.50;;;;;-3.98;78.72;99350.81;5015673;28;8831;-58
2021/01/28 04:59:17;;;;;;;;;33.25;23.00;;;;;-3.88;79.37;99355.09;5032352;28;8942;-58
2021/01/28 05:01:44;;;;;;;;;34.75;25.75;;;;;-3.93;78.05;99354.25;5031716;28;8839;-57
2021/01/28 05:04:16;;;;;;;;;35.00;25.00;;;;;-4.02;79.05;99362.22;5016119;28;8874;-58
2021/01/28 05:06:43;;;;;;;;;31.00;21.50;;;;;-4.02;79.55;99363.09;5016100;28;8874;-58
2021/01/28 05:09:12;;;;;;;;;46.00;36.25;;;;;-3.84;78.86;99356.81;5016088;28;8847;-58
2021/01/28 05:11:39;;;;;;;;;45.50;36.50;;;;;-3.91;78.40;99357.75;5031633;28;8838;-58
2021/01/28 05:14:27;;;;;;;;;47.75;32.25;;;;;-3.84;78.65;99356.81;5015761;28;8885;-57
2021/01/28 05:16:59;;;;;;;;;53.00;35.00;;;;;-4.16;79.53;99367.59;5016271;28;8862;-58
2021/01/28 05:19:48;;;;;;;;;38.75;29.00;;;;;-4.21;79.89;99359.75;5015950;28;8838;-57
2021/01/28 05:22:38;;;;;;;;;42.25;36.75;;;;;-4.01;79.65;99363.94;5014607;28;8853;-57
2021/01/28 05:25:14;;;;;;;;;38.75;24.75;;;;;-4.10;79.14;99370.16;5031058;28;9631;-57
2021/01/28 05:27:41;;;;;;;;;20.50;9.25;;;;;-4.29;80.63;99364.16;5015453;28;8855;-58
2021/01/28 05:30:17;;;;;;;;;42.25;32.50;;;;;-4.53;81.08;99364.31;5016107;28;8945;-58
2021/01/28 05:32:48;;;;;;;;;52.50;36.25;;;;;-4.39;80.87;99362.50;5015307;28;8847;-58
2021/01/28 05:35:28;;;;;;;;;43.75;27.75;;;;;-4.20;80.47;99363.22;5015724;28;8882;-57
2021/01/28 05:38:18;;;;;;;;;56.75;38.00;;;;;-4.28;80.09;99354.56;5016022;28;8910;-57
2021/01/28 05:40:58;;;;;;;;;52.00;33.75;;;;;-4.19;80.89;99359.72;5012326;28;8839;-58
2021/01/28 05:43:34;;;;;;;;;67.25;43.75;;;;;-4.14;81.49;99357.06;5030703;28;8867;-58
2021/01/28 05:46:26;;;;;;;;;71.25;45.25;;;;;-4.31;81.27;99360.69;5015904;28;8839;-58
2021/01/28 05:49:20;;;;;;;;;58.00;31.50;;;;;-3.97;79.84;99363.06;5014788;28;8965;-58
2021/01/28 05:51:49;;;;;;;;;61.25;41.75;;;;;-4.09;80.57;99377.13;5013644;28;8849;-58
2021/01/28 05:54:19;;;;;;;;;71.25;45.50;;;;;-4.35;81.45;99376.44;5015463;28;8997;-58
2021/01/28 05:57:40;;;;;;;;;52.00;29.00;;;;;-4.34;81.12;99358.09;5014508;28;8994;-58
2021/01/28 06:00:17;;;;;;;;;66.75;36.00;;;;;-4.22;81.30;99365.84;4999856;28;8858;-58
2021/01/28 06:02:59;;;;;;;;;48.50;30.50;;;;;-4.26;81.41;99363.28;5015621;28;8977;-58
2021/01/28 06:05:26;;;;;;;;;47.75;38.00;;;;;-4.70;81.64;99365.28;5015858;28;8826;-58
2021/01/28 06:08:44;;;;;;;;;57.75;40.25;;;;;-4.55;82.27;99366.09;5014986;28;8846;-59
2021/01/28 06:11:50;;;;;;;;;92.00;64.25;;;;;-4.39;82.33;99367.72;5009586;28;8843;-58
2021/01/28 06:14:50;;;;;;;;;74.75;55.50;;;;;-4.60;82.12;99367.88;5014300;28;8838;-58
2021/01/28 06:18:15;;;;;;;;;72.50;53.75;;;;;-4.64;81.93;99370.47;5030640;28;8859;-57
2021/01/28 06:21:03;;;;;;;;;66.75;46.25;;;;;-4.73;82.68;99378.41;4991600;28;8880;-58
2021/01/28 06:24:20;;;;;;;;;73.25;57.25;;;;;-4.88;83.92;99373.22;4995357;28;9482;-58
2021/01/28 06:27:07;;;;;;;;;67.50;48.25;;;;;-5.88;83.97;99377.81;4998596;28;8869;-58
2021/01/28 06:30:10;;;;;;;;;71.25;45.00;;;;;-6.24;84.60;99375.25;5015185;28;9005;-58
2021/01/28 06:33:28;;;;;;;;;90.00;61.75;;;;;-6.04;84.67;99374.38;5015050;28;8928;-58
2021/01/28 06:36:37;;;;;;;;;77.25;57.50;;;;;-5.92;84.09;99373.47;5002774;28;8861;-58
2021/01/28 06:39:30;;;;;;;;;71.75;51.75;;;;;-5.09;80.93;99369.81;5030783;28;8815;-58
2021/01/28 06:42:15;;;;;;;;;75.50;52.00;;;;;-4.64;79.10;99370.47;5016773;28;8866;-58
2021/01/28 06:45:02;;;;;;;;;69.00;47.50;;;;;-5.22;79.60;99368.13;5013706;28;8882;-58
2021/01/28 06:48:03;;;;;;;;;58.75;45.75;;;;;-5.86;82.44;99368.25;5013199;28;8843;-58
2021/01/28 06:51:09;;;;;;;;;58.50;43.50;;;;;-5.46;82.49;99360.34;5006316;28;8877;-58
2021/01/28 06:54:07;;;;;;;;;61.25;46.50;;;;;-4.52;78.82;99366.06;5012991;28;8863;-58
2021/01/28 06:57:03;;;;;;;;;65.00;48.75;;;;;-3.88;76.84;99356.84;5013943;28;8835;-57
2021/01/28 07:00:03;;;;;;;;;71.75;46.75;;;;;-3.55;75.73;99359.16;4994208;28;8829;-58
2021/01/28 07:03:28;;;;;;;;;78.75;54.25;;;;;-2.81;74.25;99365.34;5012250;28;8849;-58
2021/01/28 07:06:22;;;;;;;;;83.75;58.50;;;;;-0.95;69.25;99349.97;5029770;28;8835;-58
2021/01/28 07:09:58;;;;;;;;;85.00;60.00;;;;;0.88;63.44;99354.41;5028778;28;8819;-58
2021/01/28 07:12:38;;;;;;;;;77.00;54.25;;;;;1.06;62.81;99350.41;5002808;28;8893;-58
2021/01/28 07:15:09;;;;;;;;;86.75;63.25;;;;;0.75;63.00;99350.38;5010641;28;8851;-58
2021/01/28 07:17:44;;;;;;;;;90.00;60.00;;;;;0.67;63.71;99357.63;5029301;28;8874;-57
2021/01/28 07:20:34;;;;;;;;;78.25;55.00;;;;;1.08;62.58;99354.72;5028987;28;8831;-58
2021/01/28 07:23:40;;;;;;;;;68.75;53.00;;;;;1.31;62.42;99353.19;5013277;28;8861;-58
2021/01/28 07:26:20;;;;;;;;;69.75;51.25;;;;;1.49;62.39;99349.13;5010120;28;8847;-58
2021/01/28 07:28:49;;;;;;;;;75.25;53.75;;;;;0.42;65.44;99352.97;5013404;28;9703;-58
2021/01/28 07:31:47;;;;;;;;;65.25;48.75;;;;;-1.21;70.77;99351.38;5013452;28;8961;-58
2021/01/28 07:34:16;;;;;;;;;73.00;52.00;;;;;-2.08;75.65;99361.69;5032844;28;8852;-59
2021/01/28 07:36:50;;;;;;;;;65.50;50.50;;;;;-1.92;75.17;99357.03;5033145;28;8890;-58
2021/01/28 07:39:33;;;;;;;;;74.50;51.75;;;;;-1.94;76.49;99352.69;5033701;28;8884;-59
2021/01/28 07:42:27;;;;;;;;;65.00;45.00;;;;;-2.14;77.12;99361.75;5033383;28;8844;-58
2021/01/28 07:45:34;;;;;;;;;80.25;53.75;;;;;-1.83;76.71;99366.53;5033623;28;9609;-59
2021/01/28 07:48:03;;;;;;;;;80.00;58.25;;;;;-1.86;76.52;99370.09;5021400;28;8978;-58
2021/01/28 07:50:40;;;;;;;;;67.00;50.00;;;;;-1.78;76.54;99359.44;5013879;28;8838;-59
2021/01/28 07:53:36;;;;;;;;;70.00;45.25;;;;;-1.68;76.16;99365.41;5015714;28;8873;-58
2021/01/28 07:56:05;;;;;;;;;62.25;45.50;;;;;-1.46;75.73;99353.59;5013445;28;8835;-59
2021/01/28 07:58:36;;;;;;;;;80.25;58.50;;;;;-1.61;76.17;99367.88;5012389;28;8874;-58
2021/01/28 08:01:13;;;;;;;;;76.25;48.25;;;;;-1.14;74.54;99357.38;5028844;28;8867;-58
2021/01/28 08:04:03;;;;;;;;;69.50;49.50;;;;;-1.20;75.47;99358.38;5013037;28;8904;-58
2021/01/28 08:06:33;;;;;;;;;63.50;42.50;;;;;-1.18;75.29;99356.59;5012447;28;8851;-58
2021/01/28 08:09:15;;;;;;;;;55.25;43.25;;;;;-0.91;74.52;99349.91;5012365;28;8847;-58
2021/01/28 08:11:51;;;;;;;;;51.75;33.25;;;;;-0.85;73.54;99354.16;5011530;28;8847;-58
2021/01/28 08:14:29;;;;;;;;;55.00;37.50;;;;;-0.69;74.31;99358.22;5026893;28;8851;-58
2021/01/28 08:16:57;;;;;;;;;54.50;44.75;;;;;-0.57;73.95;99354.47;5016854;28;9290;-59
2021/01/28 08:19:27;;;;;;;;;57.75;43.75;;;;;-0.59;74.68;99347.47;5033904;28;8847;-59
2021/01/28 08:22:27;;;;;;;;;68.75;48.00;;;;;-0.52;73.37;99344.69;5017091;28;9588;-59
2021/01/28 08:24:58;;;;;;;;;62.25;45.25;;;;;-0.57;74.07;99337.78;4995392;28;8862;-59
2021/01/28 08:27:38;;;;;;;;;58.50;45.00;;;;;-0.48;73.79;99334.91;5018525;28;8878;-59
2021/01/28 08:30:18;;;;;;;;;50.25;39.75;;;;;-0.19;72.85;99334.25;5017221;28;8847;-59
2021/01/28 08:32:47;;;;;;;;;332.00;227.00;;;;;0.12;72.92;99328.22;5000988;28;8851;-59
2021/01/28 08:35:24;;;;;;;;;47.50;37.00;;;;;0.14;73.51;99331.72;5017908;28;8854;-59
2021/01/28 08:38:22;;;;;;;;;114.00;79.00;;;;;0.00;74.65;99326.78;5017246;28;8834;-60
2021/01/28 08:41:12;;;;;;;;;82.50;54.75;;;;;-0.14;74.82;99323.59;5024774;28;8847;-59
2021/01/28 08:43:40;;;;;;;;;62.50;48.25;;;;;-0.29;76.16;99325.69;5016861;28;8859;-59
2021/01/28 08:46:20;;;;;;;;;82.00;60.25;;;;;-0.28;76.34;99330.06;5034037;28;8885;-61
2021/01/28 08:48:48;;;;;;;;;78.50;56.75;;;;;-0.19;76.28;99334.25;5017872;28;8835;-59
2021/01/28 08:51:27;;;;;;;;;74.00;51.00;;;;;0.35;74.63;99340.88;5018391;28;8827;-59
2021/01/28 08:54:15;;;;;;;;;73.75;54.25;;;;;0.80;73.37;99337.91;5017916;28;8924;-59
2021/01/28 08:56:42;;;;;;;;;43.25;32.00;;;;;1.10;72.73;99338.81;5028789;28;8842;-59
2021/01/28 08:59:17;;;;;;;;;47.00;35.50;;;;;1.05;73.11;99353.94;5012927;28;8901;-59
2021/01/28 09:01:51;;;;;;;;;44.00;31.75;;;;;1.10;73.76;99346.72;5016546;28;8905;-59
2021/01/28 09:05:22;;;;;;;;;45.75;36.25;;;;;1.15;73.41;99351.91;5027273;28;8946;-60
2021/01/28 09:08:06;;;;;;;;;50.75;33.00;;;;;1.10;72.87;99358.16;5015466;28;9571;-59
2021/01/28 09:10:42;;;;;;;;;45.25;36.50;;;;;1.53;73.29;99358.72;5016561;28;8846;-59
2021/01/28 09:13:17;;;;;;;;;62.50;44.75;;;;;1.45;73.13;99366.88;5033015;28;8843;-60
2021/01/28 09:15:45;;;;;;;;;48.50;37.00;;;;;1.36;73.59;99353.91;5017511;28;8847;-59
2021/01/28 09:18:35;;;;;;;;;71.50;50.75;;;;;1.63;73.87;99352.22;5017612;28;8908;-59
2021/01/28 09:21:15;;;;;;;;;64.25;45.00;;;;;1.63;73.64;99348.69;5017718;28;8846;-59
2021/01/28 09:24:12;;;;;;;;;39.50;30.50;;;;;1.50;74.33;99345.56;5017736;28;8844;-59
2021/01/28 09:26:40;;;;;;;;;47.25;39.50;;;;;1.56;74.07;99339.25;5014178;28;8953;-59
2021/01/28 09:29:20;;;;;;;;;59.25;40.50;;;;;1.49;74.58;99342.06;5014771;28;8945;-60
2021/01/28 09:31:51;;;;;;;;;77.75;60.25;;;;;1.25;74.35;99325.16;5013016;28;8965;-60
2021/01/28 09:34:29;;;;;;;;;47.75;28.00;;;;;1.23;75.70;99341.97;5027714;28;8873;-59
2021/01/28 09:37:07;;;;;;;;;48.50;38.50;;;;;1.22;75.79;99337.59;5013111;28;8843;-60
2021/01/28 09:39:45;;;;;;;;;51.75;38.25;;;;;1.31;76.62;99339.97;5029148;28;8839;-60
2021/01/28 09:42:33;;;;;;;;;45.00;40.50;;;;;1.29;76.37;99347.06;5012486;28;8827;-60
2021/01/28 09:45:08;;;;;;;;;67.00;48.00;;;;;1.25;75.48;99335.72;5022416;28;8847;-59
2021/01/28 09:47:38;;;;;;;;;57.25;40.50;;;;;1.28;74.28;99329.47;5012758;28;8933;-59
2021/01/28 09:50:11;;;;;;;;;48.00;43.00;;;;;1.52;72.68;99328.72;5014506;28;8843;-59
2021/01/28 09:52:49;;;;;;;;;71.25;48.75;;;;;1.52;73.67;99322.56;5014438;28;8863;-59
2021/01/28 09:55:29;;;;;;;;;63.75;49.00;;;;;1.58;72.89;99314.47;5027824;28;8855;-59
2021/01/28 09:57:57;;;;;;;;;69.75;48.25;;;;;1.82;72.54;99318.13;5028934;28;8839;-59
2021/01/28 10:00:25;;;;;;;;;58.00;44.50;;;;;1.64;72.59;99313.41;5014025;28;8853;-60
2021/01/28 10:03:01;;;;;;;;;56.50;48.00;;;;;1.60;73.27;99304.69;5013567;28;8901;-60
2021/01/28 10:05:32;;;;;;;;;68.00;52.00;;;;;1.42;72.90;99306.16;5012537;28;8888;-60
2021/01/28 10:08:00;;;;;;;;;66.75;49.00;;;;;1.64;72.98;99295.75;5048548;28;8863;-59
2021/01/28 10:10:31;;;;;;;;;68.50;50.75;;;;;1.73;73.43;99291.94;5041099;28;8846;-60
2021/01/28 10:13:04;;;;;;;;;69.75;51.25;;;;;1.91;72.34;99290.47;5013376;28;8862;-59
2021/01/28 10:15:31;;;;;;;;;64.50;48.00;;;;;1.79;73.07;99283.81;5013576;28;8830;-59
2021/01/28 10:18:00;;;;;;;;;66.25;51.00;;;;;1.60;73.12;99280.00;5013610;28;8921;-60
2021/01/28 10:20:29;;;;;;;;;70.00;50.50;;;;;1.56;71.78;99275.75;5013682;28;8874;-60
2021/01/28 10:23:03;;;;;;;;;70.25;48.50;;;;;1.63;72.78;99262.25;5028211;28;8984;-59
2021/01/28 10:25:30;;;;;;;;;80.75;53.25;;;;;1.59;73.47;99257.13;5012493;28;8870;-60
2021/01/28 10:27:57;;;;;;;;;72.25;50.50;;;;;1.72;72.67;99247.88;5013499;28;8854;-59
2021/01/28 10:30:25;;;;;;;;;68.00;46.75;;;;;1.63;72.89;99242.88;5013804;28;8897;-60
2021/01/28 10:32:54;;;;;;;;;73.50;55.25;;;;;1.81;72.86;99238.75;5013020;28;8858;-59
2021/01/28 10:35:27;;;;;;;;;92.75;65.00;;;;;1.95;72.59;99234.75;5011531;28;8851;-59
2021/01/28 10:37:56;;;;;;;;;86.50;58.75;;;;;2.11;72.88;99228.94;5012999;28;8831;-59
2021/01/28 10:40:25;;;;;;;;;76.75;58.50;;;;;2.15;73.03;99234.03;5013474;28;8862;-60
2021/01/28 10:43:00;;;;;;;;;85.00;64.75;;;;;2.08;72.93;99231.66;5011946;28;8860;-59
2021/01/28 10:45:35;;;;;;;;;77.75;59.50;;;;;2.20;72.88;99215.34;5011530;28;8855;-59
2021/01/28 10:48:03;;;;;;;;;75.00;57.25;;;;;1.94;72.93;99217.09;5012007;28;8920;-60
2021/01/28 10:50:32;;;;;;;;;86.25;63.50;;;;;2.13;75.03;99208.53;5011983;28;8839;-60
2021/01/28 10:53:00;;;;;;;;;78.00;59.25;;;;;1.89;73.13;99208.47;5028487;28;8865;-59
2021/01/28 10:55:31;;;;;;;;;80.25;60.00;;;;;1.77;73.30;99211.53;5013163;28;8863;-60
2021/01/28 10:57:58;;;;;;;;;78.75;59.25;;;;;1.60;74.41;99208.56;4997254;28;9579;-59
2021/01/28 11:00:27;;;;;;;;;74.50;54.50;;;;;1.69;74.25;99214.44;4992184;28;9595;-59
2021/01/28 11:02:54;;;;;;;;;72.75;54.50;;;;;1.40;74.14;99196.88;4999925;28;8882;-60
2021/01/28 11:05:32;;;;;;;;;68.00;49.50;;;;;1.47;74.96;99198.38;5012940;28;8846;-59
2021/01/28 11:07:59;;;;;;;;;69.25;52.00;;;;;1.41;74.46;99198.59;5012888;28;8878;-59
2021/01/28 11:10:28;;;;;;;;;66.00;49.50;;;;;1.38;74.71;99184.59;5012646;28;8878;-59
2021/01/28 11:12:58;;;;;;;;;68.75;49.50;;;;;1.58;74.58;99183.94;5012618;28;9619;-59
2021/01/28 11:15:29;;;;;;;;;80.75;58.00;;;;;1.30;75.75;99184.84;5000434;28;8880;-59
2021/01/28 11:17:56;;;;;;;;;69.25;53.50;;;;;1.29;75.25;99183.09;4992821;28;8846;-59
2021/01/28 11:20:23;;;;;;;;;70.75;54.00;;;;;1.42;75.09;99173.88;4991952;28;8857;-59
2021/01/28 11:22:50;;;;;;;;;49.50;43.25;;;;;1.53;75.19;99177.03;4992923;28;8865;-59
2021/01/28 11:25:21;;;;;;;;;65.50;48.25;;;;;1.76;74.67;99167.44;4992990;28;8961;-59
2021/01/28 11:27:49;;;;;;;;;56.25;42.50;;;;;1.73;74.07;99156.97;4992929;28;8861;-59
2021/01/28 11:30:24;;;;;;;;;72.50;56.00;;;;;1.64;75.03;99157.28;5008133;28;8858;-59
2021/01/28 11:32:51;;;;;;;;;63.50;49.00;;;;;1.74;73.67;99164.00;4992872;28;8837;-60
2021/01/28 11:35:22;;;;;;;;;68.00;52.00;;;;;2.00;74.36;99163.06;4995552;28;8851;-59
2021/01/28 11:37:50;;;;;;;;;72.75;57.00;;;;;1.70;74.81;99151.78;5012367;28;9655;-59
2021/01/28 11:40:23;;;;;;;;;82.75;57.25;;;;;1.52;74.92;99151.47;5024849;28;8878;-59
2021/01/28 11:42:51;;;;;;;;;66.25;47.25;;;;;1.85;75.27;99145.97;5007460;28;8854;-59
2021/01/28 11:45:24;;;;;;;;;74.00;51.75;;;;;2.02;74.20;99142.72;5007957;28;8888;-59
2021/01/28 11:47:51;;;;;;;;;73.50;51.50;;;;;1.87;74.26;99141.50;4992283;28;8860;-60
2021/01/28 11:50:21;;;;;;;;;80.50;55.75;;;;;1.77;74.40;99134.78;4991687;28;8877;-60
2021/01/28 11:52:49;;;;;;;;;61.00;47.75;;;;;2.08;73.54;99137.22;4992625;28;8947;-59
2021/01/28 11:55:20;;;;;;;;;73.25;53.75;;;;;2.19;73.96;99136.84;4992597;28;8866;-60
2021/01/28 11:57:49;;;;;;;;;69.00;51.00;;;;;2.24;73.16;99140.19;4992144;28;8944;-59
2021/01/28 12:00:18;;;;;;;;;68.50;51.75;;;;;2.54;72.54;99142.59;4992477;28;8873;-59
2021/01/28 12:02:46;;;;;;;;;69.00;52.00;;;;;2.33;73.37;99137.19;5007134;28;8968;-59
2021/01/28 12:05:19;;;;;;;;;72.25;53.00;;;;;2.22;73.02;99131.41;4992125;28;8963;-59
2021/01/28 12:07:47;;;;;;;;;67.50;53.25;;;;;2.39;73.24;99129.00;5007513;28;8912;-59